»·PEaware :: N774DL KSBP-KPSP

N774DL :: KSBP-KPSP

FLIGHT INFORMATION

Flight Status: Arrived
Operator: Privately registered:
United States
More flights under this callsign
Pilot: Jari J. (4222)
Aircraft: DIAMOND DA-42 TWINSTAR
(DA42)
More flights by this aircraft type
Origin: KSBP San Luis Co Regl
United States
Destination: KPSP Palm Springs Intl
United States
More flights between these airports :: More routes between these airports
Route: +
File this flight plan on PilotEdge
Remarks:
Altitude:
(Current/Filed)
0ft
Speed:
(Current/Filed)
0kts
Departed: 02-Mar-15 12:23 PM
Arrived: 02-Mar-15 01:34 PM
Distance/Time
Traveled:
222nm/1:10
Distance/Time
To Go:
Arrived

Flight Plot

Page will automatically refresh every two minutes.


Map Options




Map Legend


Flown Route
Filed Route
Departure Airport
Arrival Airport
Navaid (VOR, NDB)
Fix

Horizontal Profiles

Position Reports

Time Latitude Longitude Heading Altitude Ground
Speed
02-Mar-15 12:16 35.414448 -119.064733 158 2889ft 102kts
02-Mar-15 12:17 35.390454 -119.046073 125 3977ft 103kts
02-Mar-15 12:18 35.385057 -119.012141 110 4788ft 112kts
02-Mar-15 12:19 35.375450 -118.973167 105 5559ft 123kts
02-Mar-15 12:20 35.365723 -118.932084 105 6304ft 126kts
02-Mar-15 12:21 35.355916 -118.890439 105 7043ft 127kts
02-Mar-15 12:22 35.338349 -118.851833 134 7510ft 145kts
02-Mar-15 12:23 35.299525 -118.827971 142 7501ft 163kts
02-Mar-15 12:24 35.268721 -118.786420 126 7500ft 165kts
02-Mar-15 12:25 35.241077 -118.741079 126 7500ft 166kts
02-Mar-15 12:26 35.213433 -118.695911 126 7500ft 166kts
02-Mar-15 12:27 35.185873 -118.650955 126 7499ft 162kts
02-Mar-15 12:28 35.158773 -118.606807 126 7499ft 161kts
02-Mar-15 12:29 35.131758 -118.562854 126 7500ft 161kts
02-Mar-15 12:30 35.113001 -118.513453 110 7500ft 161kts
02-Mar-15 12:31 35.096299 -118.462583 130 7494ft 161kts
02-Mar-15 12:32 35.057781 -118.434963 140 7500ft 161kts
02-Mar-15 12:33 35.027784 -118.394196 126 7500ft 161kts
02-Mar-15 12:34 35.000698 -118.350389 126 7500ft 161kts
02-Mar-15 12:35 34.978168 -118.313999 126 7500ft 161kts
02-Mar-15 12:36 34.951043 -118.270234 126 7500ft 161kts
02-Mar-15 12:37 34.919411 -118.219263 126 7500ft 161kts
02-Mar-15 12:38 34.896739 -118.182776 126 7500ft 161kts
02-Mar-15 12:39 34.869569 -118.139102 126 7500ft 161kts
02-Mar-15 12:40 34.842459 -118.095575 126 7500ft 161kts
02-Mar-15 12:41 34.815258 -118.051958 126 7500ft 161kts
02-Mar-15 12:42 34.788026 -118.008345 126 7500ft 161kts
02-Mar-15 12:43 34.760794 -117.964784 126 7500ft 161kts
02-Mar-15 12:44 34.733530 -117.921228 127 7500ft 161kts
02-Mar-15 12:45 34.706351 -117.877861 127 7500ft 161kts
02-Mar-15 12:46 34.679063 -117.834371 127 7500ft 161kts
02-Mar-15 12:47 34.651750 -117.790896 127 7500ft 161kts
02-Mar-15 12:48 34.624432 -117.747466 127 7500ft 161kts
02-Mar-15 12:49 34.597090 -117.704054 127 7500ft 161kts
02-Mar-15 12:50 34.569824 -117.660813 127 7500ft 161kts
02-Mar-15 12:51 34.542460 -117.617469 127 7500ft 161kts
02-Mar-15 12:52 34.515064 -117.574127 127 7500ft 161kts
02-Mar-15 12:53 34.487671 -117.530844 127 7500ft 161kts
02-Mar-15 12:54 34.460243 -117.487559 127 7499ft 161kts
02-Mar-15 12:55 34.434088 -117.446261 127 7867ft 149kts
02-Mar-15 12:56 34.408912 -117.406545 127 8221ft 148kts
02-Mar-15 12:57 34.383804 -117.367039 127 8568ft 149kts
02-Mar-15 12:58 34.358084 -117.326627 127 8921ft 150kts
02-Mar-15 12:59 34.350497 -117.279996 61 9283ft 148kts
02-Mar-15 13:00 34.374579 -117.238303 54 9503ft 158kts
02-Mar-15 13:01 34.393200 -117.189068 72 9519ft 164kts
02-Mar-15 13:02 34.407241 -117.136066 72 9518ft 165kts
02-Mar-15 13:03 34.421384 -117.082983 72 9518ft 165kts
02-Mar-15 13:04 34.418294 -117.028904 125 9524ft 164kts
02-Mar-15 13:05 34.400164 -116.978261 106 9518ft 165kts
02-Mar-15 13:06 34.387894 -116.924506 101 9518ft 165kts
02-Mar-15 13:07 34.379030 -116.869804 96 9518ft 165kts
02-Mar-15 13:08 34.374618 -116.816798 95 9518ft 165kts
02-Mar-15 13:09 34.367413 -116.761944 105 9519ft 165kts
02-Mar-15 13:10 34.345681 -116.713306 126 9518ft 165kts
02-Mar-15 13:11 34.318376 -116.668352 126 9518ft 165kts
02-Mar-15 13:12 34.287721 -116.627658 146 9530ft 165kts
02-Mar-15 13:13 34.246227 -116.603542 155 9527ft 165kts
02-Mar-15 13:14 34.204089 -116.580884 155 9527ft 165kts
02-Mar-15 13:15 34.161110 -116.559236 161 9127ft 169kts
02-Mar-15 13:16 34.116506 -116.552318 178 8325ft 155kts
02-Mar-15 13:17 34.073571 -116.551113 178 7511ft 150kts
02-Mar-15 13:18 34.029917 -116.548963 171 6243ft 157kts
02-Mar-15 13:19 33.988850 -116.531135 146 4808ft 164kts
02-Mar-15 13:20 33.953630 -116.501227 157 3669ft 157kts
02-Mar-15 13:21 33.915899 -116.478621 145 2573ft 149kts
02-Mar-15 13:22 33.879956 -116.458880 157 1882ft 142kts
02-Mar-15 13:23 33.847790 -116.442724 153 1910ft 90kts
02-Mar-15 13:24 33.824556 -116.446660 215 1373ft 92kts
02-Mar-15 13:25 33.805173 -116.466135 247 947ft 91kts
02-Mar-15 13:26 33.811484 -116.488738 310 797ft 79kts
02-Mar-15 13:27 33.828916 -116.504186 321 480ft 53kts
02-Mar-15 13:28 33.831671 -116.506155 47 480ft 0kts
02-Mar-15 13:29 33.828922 -116.503138 144 480ft 31kts
02-Mar-15 13:30 33.823747 -116.498347 151 480ft 14kts
02-Mar-15 13:31 33.823141 -116.498120 54 480ft 0kts

Navigation Log

Ident Type
Flight plan parsing failed, navigation log unavailable